Louis Armstrong New Orleans International Airport
KMSY : now visible

Airfield :











YOU CAN JOIN US ON...

 
LOGIN :

Register | Disclaimer

   EN    FR    IT 

 









Legend :    VFR   Marginal VFR   IFR   Intensive IFR   Very Intensive IFR
Visi :
Ceiling :
>= 8 km
>= 3000ft
5 to 8 km
1000 to 3000 ft
1500m to 5 km
500 to 1000 ft
800 to 1500m
200 to 500 ft
< 800m
< 200 ft
Symbols :   Thunderstorms  Fog  Heavy snow  Heavy precipitations  Wind > 20 kt






- Airport Elevation : 4 ft
- IATA code : MSY


KMSY - Louis Armstrong New Orleans International

CURRENT METAR :
  • 312053Z 02005KT 10SM FEW050 BKN270 32/19 A3005 RMK AO2 SLP178 T03220189 58013

EXPIRED METARs :
  • 311953Z 02007KT 10SM FEW050 BKN270 31/18 A3006 RMK AO2 SLP181 T03110183
  • 311853Z 01006KT 10SM FEW050 BKN270 31/18 A3008 RMK AO2 SLP189 T03060183
  • 311753Z 06009KT 10SM SCT250 31/18 A3009 RMK AO2 SLP191 T03110183 10311 20272 58006

TAF KMSY
Valid from the 31 at 18:00 until the 02 at 00:00 UTC


311734Z 3118/0124 04010KT P6SM BKN250
FM011300 06007KT P6SM BKN200
KZHU FIR / North America



MET'MAP, your aeronautical weather chart ! - Copyright ORBIFLY December 2007 - Disclaimer

ORBIFLY MET'MAP TEAM :

Programming & Development : Alexandra Zaïnal
Concept & original design : Baudouin d'Aumeries
Assistance for programming : Marc-Olivier Méhu
Technical & hardware support : Manuel Goepfert

Contact : metmap@orbifly.com




SOURCES & CREDITS :

   NOAA       Earth
Advisory